Time;durP1;ratioP1;P1;durP2;ratioP2;P2;SDS_P1;SDS_P2;PMS_P1;PMS_P2;Temp;Humidity;BMP_temperature;BMP_pressure;BME280_temperature;BME280_humidity;BME280_pressure;Samples;Min_cycle;Max_cycle;Signal;HPM_P1;HPM_P2
2021/04/29 00:02:55;;;;;;;110.57;48.05;;;;;;;7.78;88.17;91916.38;5013090;28;20101;-91
2021/04/29 00:05:59;;;;;;;113.85;48.83;;;;;;;7.78;88.42;91904.13;5026682;28;20041;-91
2021/04/29 00:15:47;;;;;;;;;;;;;;;;;;;;;
2021/04/29 00:27:59;;;;;;;105.70;43.95;;;;;;;7.83;89.56;91931.94;4997340;28;20120;-91
2021/04/29 00:34:16;;;;;;;105.93;43.88;;;;;;;7.61;89.66;91891.59;5020547;28;20077;-91
2021/04/29 00:37:36;;;;;;;;;;;;;;;;;;;;;
2021/04/29 00:40:19;;;;;;;;;;;;;;;;;;;;;
2021/04/29 00:43:40;;;;;;;;;;;;;;;;;;;;;
2021/04/29 00:46:33;;;;;;;104.63;43.67;;;;;;;7.76;89.21;91897.66;4999046;28;20046;-91
2021/04/29 00:49:35;;;;;;;;;;;;;;;;;;;;;
2021/04/29 00:52:23;;;;;;;;;;;;;;;;;;;;;
2021/04/29 00:55:09;;;;;;;111.10;46.35;;;;;;;7.76;89.80;91903.63;5016169;28;20054;-91
2021/04/29 00:58:13;;;;;;;;;;;;;;;;;;;;;
2021/04/29 01:01:32;;;;;;;132.75;49.33;;;;;;;7.63;89.98;91901.72;4966499;28;20065;-91
2021/04/29 01:04:33;;;;;;;688.10;55.75;;;;;;;7.39;90.45;91879.13;4974722;28;20054;-90
2021/04/29 01:07:28;;;;;;;167.82;47.78;;;;;;;7.74;90.61;91929.19;4931489;29;20513;-91
2021/04/29 01:14:15;;;;;;;;;;;;;;;;;;;;;
2021/04/29 01:17:35;;;;;;;;;;;;;;;;;;;;;
2021/04/29 01:20:22;;;;;;;;;;;;;;;;;;;;;
2021/04/29 01:23:16;;;;;;;136.85;49.50;;;;;;;7.33;91.56;91872.44;4935993;29;20056;-90
2021/04/29 01:26:39;;;;;;;123.82;48.83;;;;;;;7.67;91.20;91923.56;4935719;29;20467;-90
2021/04/29 01:29:52;;;;;;;114.28;47.67;;;;;;;7.74;91.71;91931.03;4937095;29;20052;-91
2021/04/29 01:33:05;;;;;;;;;;;;;;;;;;;;;
2021/04/29 01:43:04;;;;;;;;;;;;;;;;;;;;;
2021/04/29 01:48:58;;;;;;;110.75;44.70;;;;;;;7.67;90.47;91885.25;4989904;28;20061;-90
2021/04/29 01:52:09;;;;;;;108.35;43.75;;;;;;;7.80;90.66;91903.84;4978257;28;20105;-91
2021/04/29 01:55:33;;;;;;;;;;;;;;;;;;;;;
2021/04/29 01:58:42;;;;;;;;;;;;;;;;;;;;;
2021/04/29 02:01:51;;;;;;;;;;;;;;;;;;;;;
2021/04/29 02:04:59;;;;;;;;;;;;;;;;;;;;;
2021/04/29 02:08:16;;;;;;;97.43;41.92;;;;;;;7.81;90.06;91903.53;5012094;28;20042;-90
2021/04/29 02:14:22;;;;;;;94.30;40.70;;;;;;;7.43;90.17;91841.06;5013224;28;20053;-91
2021/04/29 02:21:27;;;;;;;92.57;39.00;;;;;;;7.43;89.68;91845.47;5002190;28;20486;-90
2021/04/29 02:24:10;;;;;;;91.22;38.45;;;;;;;7.43;90.09;91845.47;4997637;28;20050;-90
2021/04/29 02:27:25;;;;;;;88.53;37.65;;;;;;;7.76;90.23;91895.03;5010707;28;20121;-89
2021/04/29 02:30:56;;;;;;;91.15;39.85;;;;;;;7.51;89.93;91860.47;4981005;28;20108;-90
2021/04/29 02:33:54;;;;;;;91.43;39.00;;;;;;;7.43;90.03;91846.25;5015269;28;20091;-91
2021/04/29 02:37:12;;;;;;;93.75;40.10;;;;;;;7.65;90.33;91874.31;5002085;28;20046;-90
2021/04/29 02:40:10;;;;;;;;;;;;;;;;;;;;;
2021/04/29 02:43:43;;;;;;;90.07;38.22;;;;;;;7.57;90.72;91854.16;4990434;28;20580;-90
2021/04/29 02:47:05;;;;;;;96.20;39.50;;;;;;;7.65;90.43;91858.69;5023857;28;20045;-91
2021/04/29 02:53:13;;;;;;;78.13;35.70;;;;;;;7.57;90.48;91848.94;4989127;28;20058;-90
2021/04/29 02:56:31;;;;;;;77.90;35.30;;;;;;;7.76;90.32;91879.41;5020844;28;20050;-90
2021/04/29 02:59:33;;;;;;;87.47;37.38;;;;;;;7.56;89.96;91844.00;4997099;28;20535;-90
2021/04/29 03:02:57;;;;;;;91.13;36.38;;;;;;;7.50;89.72;91838.09;5014843;28;20104;-93
2021/04/29 03:06:06;;;;;;;73.93;31.80;;;;;;;7.66;90.14;91859.50;4998678;28;20061;-91
2021/04/29 03:08:47;;;;;;;;;;;;;;;;;;;;;
2021/04/29 03:12:10;;;;;;;81.38;33.53;;;;;;;7.81;90.86;91876.72;4995538;28;20131;-92
2021/04/29 03:15:06;;;;;;;79.20;33.83;;;;;;;7.48;91.02;91829.78;4985257;28;20049;-93
2021/04/29 03:17:54;;;;;;;;;;;;;;;;;;;;;
2021/04/29 03:20:55;;;;;;;82.40;34.83;;;;;;;7.89;90.46;91883.91;5014940;28;20049;-92
2021/04/29 03:24:07;;;;;;;80.40;34.40;;;;;;;7.88;90.08;91874.53;4985492;28;20110;-94
2021/04/29 03:26:49;;;;;;;78.47;34.30;;;;;;;7.89;90.73;91876.09;4989856;28;20126;-92
2021/04/29 03:29:30;;;;;;;78.50;33.97;;;;;;;7.56;90.58;91823.16;4988347;28;20046;-92
2021/04/29 03:32:44;;;;;;;;;;;;;;;;;;;;;
2021/04/29 03:35:49;;;;;;;;;;;;;;;;;;;;;
2021/04/29 03:42:28;;;;;;;81.30;35.38;;;;;;;7.90;90.04;91875.00;4998347;28;20053;-92
2021/04/29 03:45:13;;;;;;;83.60;35.45;;;;;;;7.52;90.38;91828.19;5032529;28;20443;-92
2021/04/29 03:47:54;;;;;;;81.63;35.08;;;;;;;7.50;90.64;91830.28;5014144;28;20488;-91
2021/04/29 03:50:45;;;;;;;83.53;35.15;;;;;;;7.82;90.47;91879.06;5000287;28;20052;-93
2021/04/29 03:57:20;;;;;;;76.25;34.75;;;;;;;7.58;91.00;91847.09;4996702;28;20484;-92
2021/04/29 04:00:15;;;;;;;79.68;35.55;;;;;;;7.51;90.66;91835.19;4964214;28;20048;-92
2021/04/29 04:03:45;;;;;;;84.07;36.28;;;;;;;7.88;90.60;91890.16;4955232;28;20508;-91
2021/04/29 04:06:41;;;;;;;93.22;39.92;;;;;;;7.81;90.66;91881.94;4982319;28;20058;-92
2021/04/29 04:10:09;;;;;;;;;;;;;;;;;;;;;
2021/04/29 04:13:02;;;;;;;98.80;39.72;;;;;;;7.49;91.19;91837.31;4974078;28;20501;-90
2021/04/29 04:16:14;;;;;;;108.47;42.73;;;;;;;7.48;91.39;91840.22;4995376;28;20030;-91
2021/04/29 04:26:25;;;;;;;96.88;39.25;;;;;;;7.44;91.35;91841.81;4956583;29;19929;-90
2021/04/29 04:37:52;;;;;;;;;;;;;;;;;;;;;
2021/04/29 04:56:19;;;;;;;96.18;41.00;;;;;;;7.61;89.32;91857.75;4914242;29;20083;-91
2021/04/29 05:10:55;;;;;;;;;;;;;;;8.06;89.51;91914.66;4865641;29;20095;-88
2021/04/29 05:17:46;;;;;;;99.00;40.47;;;;;;;7.85;89.65;91877.69;4879305;29;20121;-91
2021/04/29 05:43:36;;;;;;;101.88;38.58;;;;;;;7.74;92.31;91905.72;4898374;29;20066;-91
2021/04/29 05:46:47;;;;;;;;;;;;;;;;;;;;;
2021/04/29 05:54:00;;;;;;;;;;;;;;;;;;;;;
2021/04/29 05:57:27;;;;;;;92.97;36.50;;;;;;;7.52;91.97;91859.44;5000192;28;20302;-91
2021/04/29 11:12:22;;;;;;;72.35;29.05;;;;;;;8.89;88.27;91952.22;4993556;28;20064;-91
2021/04/29 11:34:59;;;;;;;;;;;;;;;;;;;;;
2021/04/29 11:45:50;;;;;;;73.28;31.02;;;;;;;9.27;89.58;91978.16;4935371;29;20059;-91
2021/04/29 11:48:40;;;;;;;72.15;30.10;;;;;;;9.01;89.21;91937.91;4936966;28;20046;-92
2021/04/29 11:55:39;;;;;;;;;;;;;;;;;;;;;
2021/04/29 11:59:15;;;;;;;;;;;;;;;;;;;;;
2021/04/29 12:06:27;;;;;;;;;;;;;;;;;;;;;
2021/04/29 12:09:42;;;;;;;75.13;29.48;;;;;;;9.13;89.80;91920.69;4917653;29;20051;-93
2021/04/29 12:20:39;;;;;;;69.28;28.92;;;;;;;8.86;89.57;91936.34;4930501;29;20072;-91
2021/04/29 12:24:14;;;;;;;;;;;;;;;;;;;;;
2021/04/29 12:30:49;;;;;;;60.60;25.95;;;;;;;8.79;90.01;91962.06;5038969;28;20029;-92
2021/04/29 12:40:32;;;;;;;45.55;20.63;;;;;;;8.69;89.24;91913.41;5010507;28;20038;-91
2021/04/29 12:43:40;;;;;;;46.95;20.95;;;;;;;8.80;89.02;91914.78;5034210;28;20053;-91
2021/04/29 13:05:36;;;;;;;;;;;;;;;;;;;;;
2021/04/29 13:09:20;;;;;;;;;;;;;;;;;;;;;
2021/04/29 13:12:14;;;;;;;50.53;22.60;;;;;;;8.45;91.12;91916.19;4967263;28;20045;-84
2021/04/29 13:14:47;;;;;;;58.88;23.58;;;;;;;8.72;90.79;91925.91;5033450;28;20049;-85
2021/04/29 13:17:25;;;;;;;44.47;21.10;;;;;;;8.92;90.21;91949.03;5016400;28;20103;-84
2021/04/29 13:20:00;;;;;;;44.92;20.00;;;;;;;8.88;91.08;91949.88;5016511;28;20053;-89
2021/04/29 13:22:27;;;;;;;40.10;17.50;;;;;;;8.93;90.07;91945.34;5015569;28;20042;-85
2021/04/29 13:24:56;;;;;;;39.90;18.73;;;;;;;8.92;89.55;91943.03;5031383;28;20505;-86
2021/04/29 13:27:22;;;;;;;42.45;18.88;;;;;;;8.64;90.99;91940.34;5050227;28;20077;-84
2021/04/29 13:29:47;;;;;;;44.55;21.27;;;;;;;8.61;91.66;91914.09;5015433;28;20069;-85
2021/04/29 13:32:13;;;;;;;47.05;22.33;;;;;;;8.68;91.17;91922.31;5031510;28;20050;-84
2021/04/29 13:34:39;;;;;;;52.55;21.73;;;;;;;8.63;91.78;91938.06;4978789;28;20045;-86
2021/04/29 13:37:05;;;;;;;44.88;20.27;;;;;;;8.61;90.29;91933.13;5011928;28;20073;-85
2021/04/29 13:39:31;;;;;;;53.80;22.90;;;;;;;8.59;91.56;91932.63;4996651;28;20124;-87
2021/04/29 13:41:56;;;;;;;52.75;22.95;;;;;;;8.41;91.85;91936.81;5049114;28;20066;-83
2021/04/29 13:44:27;;;;;;;53.05;22.92;;;;;;;8.47;91.33;91930.47;5050724;28;20041;-92
2021/04/29 13:46:58;;;;;;;62.17;25.88;;;;;;;8.51;92.49;91925.44;5029973;28;20079;-92
2021/04/29 13:49:23;;;;;;;931.85;40.35;;;;;;;8.36;93.02;91910.03;5020407;28;20463;-91
2021/04/29 13:51:52;;;;;;;1157.03;49.50;;;;;;;8.20;94.30;91919.94;5031343;28;20041;-92
2021/04/29 13:54:43;;;;;;;;;;;;;;;;;;;;;
2021/04/29 13:57:36;;;;;;;1182.70;49.30;;;;;;;7.88;95.86;91883.13;5035502;28;20069;-91
2021/04/29 14:04:02;;;;;;;1029.78;45.05;;;;;;;8.26;95.30;91916.19;5033837;28;20117;-91
2021/04/29 14:19:49;;;;;;;;;;;;;;;;;;;;;
2021/04/29 14:27:46;;;;;;;;;;;;;;;;;;;;;
2021/04/29 15:06:30;;;;;;;;;;;;;;;;;;;;;
2021/04/29 15:10:19;;;;;;;15.98;8.02;;;;;;;8.12;94.96;91851.72;4704686;30;20539;-93
2021/04/29 15:25:05;;;;;;;10.38;5.35;;;;;;;8.15;94.34;91876.47;4917164;28;20040;-93
2021/04/29 15:31:44;;;;;;;9.45;5.63;;;;;;;8.12;93.58;91859.53;5008100;28;20399;-90
2021/04/29 15:37:59;;;;;;;11.75;6.28;;;;;;;8.33;93.96;91867.03;5019025;28;20064;-92
2021/04/29 16:21:45;;;;;;;;;;;;;;;;;;;;;
2021/04/29 16:25:59;;;;;;;;;;;;;;;;;;;;;
2021/04/29 17:05:49;;;;;;;35.63;13.77;;;;;;;8.42;92.85;91826.25;5039393;28;20089;-92
2021/04/29 17:08:37;;;;;;;72.85;32.53;;;;;;;8.48;92.25;91830.28;5036524;28;20486;-93
2021/04/29 17:14:45;;;;;;;17.60;8.60;;;;;;;8.72;92.61;91842.38;5047308;28;20051;-92
2021/04/29 17:17:45;;;;;;;16.70;8.57;;;;;;;8.65;92.36;91827.13;5028235;28;20045;-92
2021/04/29 17:21:15;;;;;;;;;;;;;;;;;;;;;
2021/04/29 17:24:24;;;;;;;;;;;;;;;;;;;;;
2021/04/29 17:27:38;;;;;;;22.02;11.63;;;;;;;8.65;91.77;91836.78;5046446;28;20049;-93
2021/04/29 17:30:51;;;;;;;;;;;;;;;;;;;;;
2021/04/29 17:37:15;;;;;;;20.50;9.50;;;;;;;8.93;92.95;91864.41;5032367;28;20057;-92
2021/04/29 17:44:02;;;;;;;10.27;4.97;;;;;;;8.70;92.29;91824.41;5039784;28;20502;-92
2021/04/29 17:58:50;;;;;;;13.75;7.65;;;;;;;8.64;92.82;91832.63;5021129;28;20548;-91
2021/04/29 18:02:03;;;;;;;235.98;10.95;;;;;;;8.71;93.77;91885.97;5014740;28;20044;-94
2021/04/29 18:05:13;;;;;;;;;;;;;;;;;;;;;
2021/04/29 18:27:29;;;;;;;7.97;4.10;;;;;;;8.39;94.59;91865.88;5002377;28;20041;-92
2021/04/29 18:33:33;;;;;;;10.25;5.15;;;;;;;8.21;94.84;91836.19;5040004;28;20045;-92
2021/04/29 18:36:40;;;;;;;10.32;5.07;;;;;;;8.39;94.65;91865.88;5048641;28;20045;-91
2021/04/29 18:43:10;;;;;;;17.60;7.22;;;;;;;8.41;94.14;91873.47;5034707;28;20519;-91
2021/04/29 18:46:23;;;;;;;7.22;3.63;;;;;;;8.36;94.13;91860.50;5010496;28;20063;-91
2021/04/29 18:52:59;;;;;;;5.80;3.28;;;;;;;8.71;93.86;91919.09;5013378;28;20079;-92
2021/04/29 18:56:37;;;;;;;;;;;;;;;;;;;;;
2021/04/29 18:59:39;;;;;;;7.88;5.13;;;;;;;8.72;93.99;91926.66;5043136;28;20037;-91
2021/04/29 19:45:53;;;;;;;;;;;;;;;;;;;;;
2021/04/29 20:18:51;;;;;;;6.03;3.05;;;;;;;8.04;90.47;91933.19;6045031;22;3776111;-93
2021/04/29 20:25:09;;;;;;;1.70;1.00;;;;;;;8.04;88.96;91933.19;6284429;22;20376;-91
2021/04/29 20:34:35;;;;;;;;;;;;;;;;;;;;;
2021/04/29 20:37:47;;;;;;;0.35;0.35;;;;;;;8.22;86.50;91962.13;6284669;22;20012;-90
2021/04/29 20:40:41;;;;;;;0.40;0.40;;;;;;;8.34;85.93;91978.88;6261324;22;20019;-91
2021/04/29 20:44:11;;;;;;;0.50;0.45;;;;;;;8.23;86.10;91961.09;6257909;22;20023;-91
2021/04/29 20:47:24;;;;;;;1.33;0.70;;;;;;;8.02;85.63;91934.53;6255787;22;20011;-92
2021/04/29 20:50:21;;;;;;;1.45;0.90;;;;;;;8.14;86.06;91959.09;6265407;22;20087;-92
2021/04/29 20:53:49;;;;;;;1.80;0.75;;;;;;;8.28;87.87;91982.63;6282608;22;20572;-92
2021/04/29 20:56:52;;;;;;;;;;;;;;;;;;;;;
2021/04/29 20:59:48;;;;;;;0.88;0.65;;;;;;;7.95;89.72;91945.31;6284100;22;20020;-91
2021/04/29 21:03:15;;;;;;;3.03;0.90;;;;;;;7.97;90.17;91960.66;6283323;22;20082;-91
2021/04/29 21:06:22;;;;;;;;;;;;;;;;;;;;;
2021/04/29 21:09:17;;;;;;;5.18;0.73;;;;;;;7.87;91.00;91972.78;6264668;22;20011;-93
2021/04/29 21:12:33;;;;;;;1.27;0.77;;;;;;;8.08;91.42;92011.59;6266466;22;20023;-91
2021/04/29 21:15:29;;;;;;;1.38;0.85;;;;;;;7.85;91.16;91981.94;6247522;22;20018;-92
2021/04/29 21:18:50;;;;;;;;;;;;;;;;;;;;;
2021/04/29 21:28:52;;;;;;;11.07;5.15;;;;;;;7.78;92.11;91986.72;6259318;22;20019;-91
2021/04/29 21:31:48;;;;;;;7.95;4.40;;;;;;;8.08;92.52;92025.44;6209760;22;20039;-93
2021/04/29 21:34:49;;;;;;;8.27;4.80;;;;;;;8.10;92.84;92030.34;6251242;22;20076;-91
2021/04/29 21:37:54;;;;;;;7.45;4.57;;;;;;;8.08;92.54;92030.66;6257752;22;20099;-92
2021/04/29 21:41:27;;;;;;;;;;;;;;;;;;;;;
2021/04/29 21:44:32;;;;;;;;;;;;;;;;;;;;;
2021/04/29 21:47:40;;;;;;;8.35;4.43;;;;;;;7.92;92.89;92021.44;6257475;22;20047;-92
2021/04/29 21:50:50;;;;;;;7.55;4.32;;;;;;;8.04;92.84;92042.69;6251889;22;20039;-91
2021/04/29 21:53:43;;;;;;;8.23;4.60;;;;;;;7.98;92.93;92037.81;6276869;22;20099;-91
2021/04/29 21:56:39;;;;;;;;;;;;;;;;;;;;;
2021/04/29 22:02:58;;;;;;;12.15;5.95;;;;;;;8.00;93.16;92049.50;6266307;22;20111;-92
2021/04/29 22:09:26;;;;;;;12.02;5.57;;;;;;;7.80;93.14;92023.69;6257885;22;20091;-92
2021/04/29 22:12:39;;;;;;;9.27;5.03;;;;;;;8.01;92.77;92056.25;6261215;22;20020;-92
2021/04/29 22:15:44;;;;;;;;;;;;;;;;;;;;;
2021/04/29 22:19:15;;;;;;;;;;;;;;;;;;;;;
2021/04/29 22:25:07;;;;;;;10.02;5.15;;;;;;;7.99;93.05;92060.97;6191758;23;20027;-92
2021/04/29 22:27:56;;;;;;;;;;;;;;;;;;;;;
2021/04/29 22:30:52;;;;;;;9.32;4.70;;;;;;;7.96;92.79;92058.94;6200128;23;20100;-90
2021/04/29 22:33:57;;;;;;;9.40;5.10;;;;;;;7.70;93.11;92014.16;6220370;23;20095;-91
2021/04/29 22:36:41;;;;;;;7.63;4.05;;;;;;;8.00;93.13;92061.78;6220308;23;20431;-91
2021/04/29 22:40:06;;;;;;;6.25;3.40;;;;;;;8.00;92.95;92062.53;6195284;23;20679;-92
2021/04/29 22:42:54;;;;;;;10.20;4.70;;;;;;;7.90;92.54;92047.00;6244707;23;20020;-93
2021/04/29 22:46:30;;;;;;;7.70;4.60;;;;;;;7.72;92.20;92031.09;6203008;23;20020;-92
2021/04/29 22:49:13;;;;;;;11.70;4.93;;;;;;;7.84;92.99;92053.38;6222279;23;20100;-92
2021/04/29 22:52:42;;;;;;;11.60;5.13;;;;;;;7.64;92.80;92023.13;6198369;23;20016;-91
2021/04/29 22:55:52;;;;;;;9.98;4.75;;;;;;;7.66;93.16;92021.78;6223850;23;20080;-91
2021/04/29 22:58:58;;;;;;;;;;;;;;;;;;;;;
2021/04/29 23:02:06;;;;;;;;;;;;;;;;;;;;;
2021/04/29 23:05:00;;;;;;;;;;;;;;;;;;;;;
2021/04/29 23:07:42;;;;;;;8.88;4.55;;;;;;;7.75;93.20;92028.97;6199042;23;20026;-91
2021/04/29 23:10:37;;;;;;;6.80;3.33;;;;;;;7.91;92.25;92053.78;6174960;23;20043;-91
2021/04/29 23:14:02;;;;;;;;;;;;;;;;;;;;;
2021/04/29 23:16:44;;;;;;;8.90;4.15;;;;;;;7.55;91.97;92009.94;6245813;23;20020;-92
2021/04/29 23:23:19;;;;;;;;;;;;;;;;;;;;;
2021/04/29 23:30:00;;;;;;;6.03;3.45;;;;;;;7.49;91.85;92024.06;6277065;22;20067;-92
2021/04/29 23:32:43;;;;;;;6.28;3.40;;;;;;;7.68;92.42;92053.53;6225599;22;20388;-90
2021/04/29 23:35:42;;;;;;;4.90;2.42;;;;;;;7.46;91.93;92012.38;6275605;22;20086;-91
2021/04/29 23:41:45;;;;;;;3.70;1.80;;;;;;;7.44;91.52;92017.06;6233701;22;20012;-91
2021/04/29 23:44:43;;;;;;;5.00;1.90;;;;;;;7.59;90.79;92029.16;6275555;22;20022;-91
2021/04/29 23:48:08;;;;;;;2.72;1.50;;;;;;;7.54;90.07;92028.44;6254407;22;20015;-91
2021/04/29 23:51:00;;;;;;;;;;;;;;;;;;;;;
2021/04/29 23:54:01;;;;;;;6.55;1.90;;;;;;;7.43;90.62;92019.94;6255383;22;20023;-91
2021/04/29 23:57:01;;;;;;;;;;;;;;;;;;;;;
